Fort Dodge, IA

2:38 PM CDT on August 23, 2014 (GMT -0500)
Duncombe School area | Change Station
CLOSE
Current Station
Personal Weather Station
Location: Fort Dodge, IA
Elevation: 1109 ft
Nearby Weather Stations

Elev 1109 ft 42.51 °N, 94.18 °W | Updated 5 seconds ago

Clear
Clear
81.7 °F
Feels Like 87 °F
N
0.9
Wind Variable Wind from East
Gusts 5.0 mph

Today
High -- | Low -- °F
--% Chance of Precip.
Yesterday
High -- | Low -- °F
Precip. -- in
6:32 AM 8:05 PM
Waning Crescent, 3% visible
Pressure 29.92 in
Visibility 10.0 miles
Clouds Clear
Heat Index 87 °F
Dew Point 74 °F
Humidity 77%
Rainfall 0.13 in
Snow Depth Not available.
UV 9 out of 12
Pollen 5.80 out of 12
Air Quality Not available.
Flu Activity Not available.
METAR KFOD 231935Z AUTO 13007KT 10SM CLR 27/22 A2992 RMK AO1

More Conditions Fewer Conditions

Pressure 29.92 in
Visibility 10.0 miles
Clouds Clear
Heat Index 87 °F
Dew Point 74 °F
Humidity 77%
Rainfall 0.13 in
Snow Depth Not available.
UV 9 out of 12
Pollen 5.80 out of 12
Air Quality Not available.
Flu Activity Not available.
METAR KFOD 231935Z AUTO 13007KT 10SM CLR 27/22 A2992 RMK AO1

More Conditions Fewer Conditions

10-Day Weather Forecast

Almanac

Astronomy

Aug. 23, 2014 Rise Set
Actual Time 6:32 AM CDT 8:05 PM CDT
Civil Twilight 6:02 AM CDT 8:35 PM CDT
Nautical Twilight 5:26 AM CDT 9:10 PM CDT
Astronomical Twilight 4:48 AM CDT 9:48 PM CDT
Moon 4:48 AM CDT 6:51 PM CDT
Length of Visible Light 14h 32m
Length of Day
13h 33m
Tomorrow will be 2m 40s shorter.
Waning Crescent, 3% of the Moon is Illuminated
Today
Waning Crescent
Aug 25
New
Sep 2
First Quarter
Sep 8
Full
Sep 15
Last Quarter

Today's Extremes

State Highs State Lows

Community

WunderPhotos

Upload Photos

1,746,583 photos uploaded!

WunderBlogs® & News

Nearby

Snow Depth

Station Depth Elevation
No new snow has been reported.

Earthquake Activity

City Distance Mag. Time & Date
No recent earthquake activity has been reported nearby.
Minimum magnitude displayed is 2.5.

Coastal Water Temperatures

Place Temperature
No Stations Reporting

Nearby Weather Stations